sensor_id;sensor_type;location;lat;lon;timestamp;P1;durP1;ratioP1;P2;durP2;ratioP2
37425;SDS011;23285;50.180;7.036;2023-02-01T00:01:52;15.03;;;13.43;;
37425;SDS011;23285;50.180;7.036;2023-02-01T00:04:38;14.13;;;12.73;;
37425;SDS011;23285;50.180;7.036;2023-02-01T00:07:25;15.13;;;13.53;;
37425;SDS011;23285;50.180;7.036;2023-02-01T00:10:11;14.27;;;12.33;;
37425;SDS011;23285;50.180;7.036;2023-02-01T00:12:59;14.93;;;12.83;;
37425;SDS011;23285;50.180;7.036;2023-02-01T00:15:45;12.67;;;11.47;;
37425;SDS011;23285;50.180;7.036;2023-02-01T00:18:32;13.57;;;12.13;;
37425;SDS011;23285;50.180;7.036;2023-02-01T00:21:19;11.73;;;10.53;;
37425;SDS011;23285;50.180;7.036;2023-02-01T00:24:06;12.50;;;10.83;;
37425;SDS011;23285;50.180;7.036;2023-02-01T00:26:53;14.30;;;12.43;;
37425;SDS011;23285;50.180;7.036;2023-02-01T00:29:41;12.33;;;11.03;;
37425;SDS011;23285;50.180;7.036;2023-02-01T00:32:28;17.37;;;13.67;;
37425;SDS011;23285;50.180;7.036;2023-02-01T00:35:16;16.10;;;12.23;;
37425;SDS011;23285;50.180;7.036;2023-02-01T00:38:02;12.40;;;10.50;;
37425;SDS011;23285;50.180;7.036;2023-02-01T00:40:49;8.57;;;7.77;;
37425;SDS011;23285;50.180;7.036;2023-02-01T00:43:35;14.60;;;11.20;;
37425;SDS011;23285;50.180;7.036;2023-02-01T00:46:22;10.13;;;8.83;;
37425;SDS011;23285;50.180;7.036;2023-02-01T00:49:09;9.67;;;8.67;;
37425;SDS011;23285;50.180;7.036;2023-02-01T00:51:55;14.57;;;11.43;;
37425;SDS011;23285;50.180;7.036;2023-02-01T00:54:42;9.77;;;8.77;;
37425;SDS011;23285;50.180;7.036;2023-02-01T00:57:29;7.77;;;6.93;;
37425;SDS011;23285;50.180;7.036;2023-02-01T01:00:17;8.63;;;7.77;;
37425;SDS011;23285;50.180;7.036;2023-02-01T01:03:05;8.13;;;7.33;;
37425;SDS011;23285;50.180;7.036;2023-02-01T01:06:02;10.03;;;8.90;;
37425;SDS011;23285;50.180;7.036;2023-02-01T01:08:50;7.40;;;6.67;;
37425;SDS011;23285;50.180;7.036;2023-02-01T01:11:37;8.07;;;7.20;;
37425;SDS011;23285;50.180;7.036;2023-02-01T01:14:24;8.83;;;7.30;;
37425;SDS011;23285;50.180;7.036;2023-02-01T01:17:10;7.20;;;6.37;;
37425;SDS011;23285;50.180;7.036;2023-02-01T01:19:58;6.17;;;5.57;;
37425;SDS011;23285;50.180;7.036;2023-02-01T01:22:45;6.33;;;5.70;;
37425;SDS011;23285;50.180;7.036;2023-02-01T01:25:31;7.97;;;6.43;;
37425;SDS011;23285;50.180;7.036;2023-02-01T01:28:18;6.77;;;6.00;;
37425;SDS011;23285;50.180;7.036;2023-02-01T01:31:07;4.60;;;4.20;;
37425;SDS011;23285;50.180;7.036;2023-02-01T01:33:54;5.27;;;4.77;;
37425;SDS011;23285;50.180;7.036;2023-02-01T01:36:44;4.63;;;3.63;;
37425;SDS011;23285;50.180;7.036;2023-02-01T01:39:31;3.63;;;3.33;;
37425;SDS011;23285;50.180;7.036;2023-02-01T01:42:17;3.73;;;3.20;;
37425;SDS011;23285;50.180;7.036;2023-02-01T01:45:04;3.40;;;3.10;;
37425;SDS011;23285;50.180;7.036;2023-02-01T01:47:52;3.57;;;3.27;;
37425;SDS011;23285;50.180;7.036;2023-02-01T01:50:41;3.60;;;3.07;;
37425;SDS011;23285;50.180;7.036;2023-02-01T01:53:30;4.93;;;3.40;;
37425;SDS011;23285;50.180;7.036;2023-02-01T01:56:22;3.73;;;2.87;;
37425;SDS011;23285;50.180;7.036;2023-02-01T01:59:09;3.77;;;3.30;;
37425;SDS011;23285;50.180;7.036;2023-02-01T02:01:55;3.47;;;3.17;;
37425;SDS011;23285;50.180;7.036;2023-02-01T02:04:42;5.47;;;4.23;;
37425;SDS011;23285;50.180;7.036;2023-02-01T02:07:30;4.30;;;3.70;;
37425;SDS011;23285;50.180;7.036;2023-02-01T02:10:20;3.90;;;3.50;;
37425;SDS011;23285;50.180;7.036;2023-02-01T02:13:27;4.57;;;3.43;;
37425;SDS011;23285;50.180;7.036;2023-02-01T02:16:20;6.67;;;3.67;;
37425;SDS011;23285;50.180;7.036;2023-02-01T02:19:17;7.57;;;4.00;;
37425;SDS011;23285;50.180;7.036;2023-02-01T02:22:35;4.27;;;3.87;;
37425;SDS011;23285;50.180;7.036;2023-02-01T02:25:42;7.60;;;4.53;;
37425;SDS011;23285;50.180;7.036;2023-02-01T02:28:44;5.87;;;3.57;;
37425;SDS011;23285;50.180;7.036;2023-02-01T02:32:05;5.20;;;4.27;;
37425;SDS011;23285;50.180;7.036;2023-02-01T02:35:09;6.80;;;4.30;;
37425;SDS011;23285;50.180;7.036;2023-02-01T02:38:01;5.13;;;3.80;;
37425;SDS011;23285;50.180;7.036;2023-02-01T02:40:49;10.83;;;5.10;;
37425;SDS011;23285;50.180;7.036;2023-02-01T02:43:43;7.40;;;4.47;;
37425;SDS011;23285;50.180;7.036;2023-02-01T02:46:49;7.33;;;4.53;;
37425;SDS011;23285;50.180;7.036;2023-02-01T02:49:57;7.60;;;4.53;;
37425;SDS011;23285;50.180;7.036;2023-02-01T02:53:09;9.37;;;4.43;;
37425;SDS011;23285;50.180;7.036;2023-02-01T02:56:15;8.90;;;4.20;;
37425;SDS011;23285;50.180;7.036;2023-02-01T02:59:22;12.80;;;5.20;;
37425;SDS011;23285;50.180;7.036;2023-02-01T03:02:27;9.43;;;5.17;;
37425;SDS011;23285;50.180;7.036;2023-02-01T03:05:32;14.10;;;5.43;;
37425;SDS011;23285;50.180;7.036;2023-02-01T03:08:20;15.27;;;5.93;;
37425;SDS011;23285;50.180;7.036;2023-02-01T03:11:08;16.90;;;6.83;;
37425;SDS011;23285;50.180;7.036;2023-02-01T03:13:56;10.97;;;5.47;;
37425;SDS011;23285;50.180;7.036;2023-02-01T03:16:46;14.77;;;7.33;;
37425;SDS011;23285;50.180;7.036;2023-02-01T03:19:34;13.00;;;5.97;;
37425;SDS011;23285;50.180;7.036;2023-02-01T03:22:28;18.97;;;6.73;;
37425;SDS011;23285;50.180;7.036;2023-02-01T03:25:19;17.43;;;6.97;;
37425;SDS011;23285;50.180;7.036;2023-02-01T03:28:08;14.00;;;6.73;;
37425;SDS011;23285;50.180;7.036;2023-02-01T03:30:56;12.83;;;5.53;;
37425;SDS011;23285;50.180;7.036;2023-02-01T03:33:43;14.33;;;5.93;;
37425;SDS011;23285;50.180;7.036;2023-02-01T03:36:31;15.67;;;6.00;;
37425;SDS011;23285;50.180;7.036;2023-02-01T03:39:22;14.40;;;5.57;;
37425;SDS011;23285;50.180;7.036;2023-02-01T03:42:14;15.90;;;6.50;;
37425;SDS011;23285;50.180;7.036;2023-02-01T03:45:06;12.53;;;5.67;;
37425;SDS011;23285;50.180;7.036;2023-02-01T03:47:55;15.43;;;5.47;;
37425;SDS011;23285;50.180;7.036;2023-02-01T03:50:46;13.97;;;6.87;;
37425;SDS011;23285;50.180;7.036;2023-02-01T03:53:36;13.40;;;6.23;;
37425;SDS011;23285;50.180;7.036;2023-02-01T03:56:25;16.07;;;6.73;;
37425;SDS011;23285;50.180;7.036;2023-02-01T03:59:16;15.13;;;6.93;;
37425;SDS011;23285;50.180;7.036;2023-02-01T04:02:02;21.97;;;7.20;;
37425;SDS011;23285;50.180;7.036;2023-02-01T04:04:49;18.20;;;8.00;;
37425;SDS011;23285;50.180;7.036;2023-02-01T04:07:37;23.73;;;7.40;;
37425;SDS011;23285;50.180;7.036;2023-02-01T04:10:23;13.67;;;6.43;;
37425;SDS011;23285;50.180;7.036;2023-02-01T04:13:10;19.87;;;7.97;;
37425;SDS011;23285;50.180;7.036;2023-02-01T04:15:58;24.07;;;9.43;;
37425;SDS011;23285;50.180;7.036;2023-02-01T04:18:44;19.57;;;8.53;;
37425;SDS011;23285;50.180;7.036;2023-02-01T04:21:30;21.80;;;8.33;;
37425;SDS011;23285;50.180;7.036;2023-02-01T04:24:17;19.90;;;7.70;;
37425;SDS011;23285;50.180;7.036;2023-02-01T04:27:03;18.23;;;6.80;;
37425;SDS011;23285;50.180;7.036;2023-02-01T04:29:50;17.43;;;7.60;;
37425;SDS011;23285;50.180;7.036;2023-02-01T04:32:38;23.57;;;7.73;;
37425;SDS011;23285;50.180;7.036;2023-02-01T04:35:24;22.63;;;8.63;;
37425;SDS011;23285;50.180;7.036;2023-02-01T04:38:11;26.40;;;8.20;;
37425;SDS011;23285;50.180;7.036;2023-02-01T04:40:58;21.60;;;8.63;;
37425;SDS011;23285;50.180;7.036;2023-02-01T04:43:44;19.63;;;6.87;;
37425;SDS011;23285;50.180;7.036;2023-02-01T04:46:31;25.07;;;7.70;;
37425;SDS011;23285;50.180;7.036;2023-02-01T04:49:19;23.10;;;7.80;;
37425;SDS011;23285;50.180;7.036;2023-02-01T04:52:06;26.43;;;7.17;;
37425;SDS011;23285;50.180;7.036;2023-02-01T04:54:52;29.00;;;8.87;;
37425;SDS011;23285;50.180;7.036;2023-02-01T04:57:41;21.57;;;7.23;;
37425;SDS011;23285;50.180;7.036;2023-02-01T05:00:28;21.13;;;7.07;;
37425;SDS011;23285;50.180;7.036;2023-02-01T05:03:14;23.87;;;7.83;;
37425;SDS011;23285;50.180;7.036;2023-02-01T05:06:02;25.40;;;8.17;;
37425;SDS011;23285;50.180;7.036;2023-02-01T05:08:49;21.40;;;6.97;;
37425;SDS011;23285;50.180;7.036;2023-02-01T05:11:35;23.10;;;6.47;;
37425;SDS011;23285;50.180;7.036;2023-02-01T05:14:39;19.23;;;5.80;;
37425;SDS011;23285;50.180;7.036;2023-02-01T05:17:25;26.07;;;7.50;;
37425;SDS011;23285;50.180;7.036;2023-02-01T05:20:12;26.67;;;7.70;;
37425;SDS011;23285;50.180;7.036;2023-02-01T05:22:59;18.63;;;7.03;;
37425;SDS011;23285;50.180;7.036;2023-02-01T05:25:46;18.80;;;6.90;;
37425;SDS011;23285;50.180;7.036;2023-02-01T05:28:33;25.90;;;6.43;;
37425;SDS011;23285;50.180;7.036;2023-02-01T05:31:19;22.47;;;7.87;;
37425;SDS011;23285;50.180;7.036;2023-02-01T05:34:06;21.60;;;6.20;;
37425;SDS011;23285;50.180;7.036;2023-02-01T05:36:52;20.97;;;7.10;;
37425;SDS011;23285;50.180;7.036;2023-02-01T05:39:40;18.03;;;5.73;;
37425;SDS011;23285;50.180;7.036;2023-02-01T05:42:26;22.93;;;6.17;;
37425;SDS011;23285;50.180;7.036;2023-02-01T05:45:14;21.77;;;5.80;;
37425;SDS011;23285;50.180;7.036;2023-02-01T05:48:00;22.10;;;6.20;;
37425;SDS011;23285;50.180;7.036;2023-02-01T05:50:47;19.93;;;6.50;;
37425;SDS011;23285;50.180;7.036;2023-02-01T05:53:33;23.93;;;7.30;;
37425;SDS011;23285;50.180;7.036;2023-02-01T05:56:21;18.27;;;5.80;;
37425;SDS011;23285;50.180;7.036;2023-02-01T05:59:07;27.50;;;7.40;;
37425;SDS011;23285;50.180;7.036;2023-02-01T06:01:54;15.40;;;5.80;;
37425;SDS011;23285;50.180;7.036;2023-02-01T06:04:40;16.03;;;6.03;;
37425;SDS011;23285;50.180;7.036;2023-02-01T06:07:26;24.97;;;5.97;;
37425;SDS011;23285;50.180;7.036;2023-02-01T06:10:12;17.17;;;4.97;;
37425;SDS011;23285;50.180;7.036;2023-02-01T06:13:00;18.93;;;5.40;;
37425;SDS011;23285;50.180;7.036;2023-02-01T06:15:47;24.90;;;6.50;;
37425;SDS011;23285;50.180;7.036;2023-02-01T06:18:33;15.93;;;5.67;;
37425;SDS011;23285;50.180;7.036;2023-02-01T06:21:19;25.27;;;6.20;;
37425;SDS011;23285;50.180;7.036;2023-02-01T06:24:08;20.80;;;6.27;;
37425;SDS011;23285;50.180;7.036;2023-02-01T06:26:55;20.40;;;5.33;;
37425;SDS011;23285;50.180;7.036;2023-02-01T06:29:42;21.33;;;5.43;;
37425;SDS011;23285;50.180;7.036;2023-02-01T06:32:28;18.10;;;5.57;;
37425;SDS011;23285;50.180;7.036;2023-02-01T06:35:15;26.70;;;6.47;;
37425;SDS011;23285;50.180;7.036;2023-02-01T06:38:01;24.73;;;6.53;;
37425;SDS011;23285;50.180;7.036;2023-02-01T06:40:51;16.70;;;4.90;;
37425;SDS011;23285;50.180;7.036;2023-02-01T06:43:37;22.70;;;6.50;;
37425;SDS011;23285;50.180;7.036;2023-02-01T06:46:25;21.60;;;5.87;;
37425;SDS011;23285;50.180;7.036;2023-02-01T06:49:12;20.47;;;6.00;;
37425;SDS011;23285;50.180;7.036;2023-02-01T06:51:58;21.43;;;5.63;;
37425;SDS011;23285;50.180;7.036;2023-02-01T06:54:45;21.77;;;6.50;;
37425;SDS011;23285;50.180;7.036;2023-02-01T06:57:31;23.60;;;6.70;;
37425;SDS011;23285;50.180;7.036;2023-02-01T07:00:20;22.13;;;6.03;;
37425;SDS011;23285;50.180;7.036;2023-02-01T07:03:08;19.97;;;5.43;;
37425;SDS011;23285;50.180;7.036;2023-02-01T07:05:55;21.97;;;6.83;;
37425;SDS011;23285;50.180;7.036;2023-02-01T07:08:43;18.80;;;5.27;;
37425;SDS011;23285;50.180;7.036;2023-02-01T07:11:29;21.23;;;6.60;;
37425;SDS011;23285;50.180;7.036;2023-02-01T07:14:16;19.57;;;5.50;;
37425;SDS011;23285;50.180;7.036;2023-02-01T07:17:02;23.73;;;6.77;;
37425;SDS011;23285;50.180;7.036;2023-02-01T07:19:50;17.50;;;5.90;;
37425;SDS011;23285;50.180;7.036;2023-02-01T07:22:36;17.60;;;5.77;;
37425;SDS011;23285;50.180;7.036;2023-02-01T07:25:23;19.23;;;6.13;;
37425;SDS011;23285;50.180;7.036;2023-02-01T07:28:09;20.53;;;6.60;;
37425;SDS011;23285;50.180;7.036;2023-02-01T07:31:01;18.07;;;5.27;;
37425;SDS011;23285;50.180;7.036;2023-02-01T07:33:47;24.67;;;6.20;;
37425;SDS011;23285;50.180;7.036;2023-02-01T07:36:37;18.53;;;5.70;;
37425;SDS011;23285;50.180;7.036;2023-02-01T07:39:23;23.77;;;5.90;;
37425;SDS011;23285;50.180;7.036;2023-02-01T07:42:12;18.97;;;4.90;;
37425;SDS011;23285;50.180;7.036;2023-02-01T07:44:58;25.40;;;6.03;;
37425;SDS011;23285;50.180;7.036;2023-02-01T07:47:45;17.73;;;5.37;;
37425;SDS011;23285;50.180;7.036;2023-02-01T07:50:31;16.23;;;5.77;;
37425;SDS011;23285;50.180;7.036;2023-02-01T07:53:19;18.83;;;5.17;;
37425;SDS011;23285;50.180;7.036;2023-02-01T07:56:09;20.20;;;5.87;;
37425;SDS011;23285;50.180;7.036;2023-02-01T07:58:56;16.07;;;4.50;;
37425;SDS011;23285;50.180;7.036;2023-02-01T08:01:44;19.00;;;5.13;;
37425;SDS011;23285;50.180;7.036;2023-02-01T08:04:30;15.23;;;5.43;;
37425;SDS011;23285;50.180;7.036;2023-02-01T08:07:17;19.00;;;5.63;;
37425;SDS011;23285;50.180;7.036;2023-02-01T08:10:05;22.57;;;5.80;;
37425;SDS011;23285;50.180;7.036;2023-02-01T08:12:57;18.13;;;4.73;;
37425;SDS011;23285;50.180;7.036;2023-02-01T08:15:44;27.23;;;5.23;;
37425;SDS011;23285;50.180;7.036;2023-02-01T08:18:31;25.67;;;5.27;;
37425;SDS011;23285;50.180;7.036;2023-02-01T08:21:18;22.60;;;5.93;;
37425;SDS011;23285;50.180;7.036;2023-02-01T08:24:07;18.23;;;4.57;;
37425;SDS011;23285;50.180;7.036;2023-02-01T08:26:56;16.63;;;4.73;;
37425;SDS011;23285;50.180;7.036;2023-02-01T08:29:42;13.50;;;4.63;;
37425;SDS011;23285;50.180;7.036;2023-02-01T08:32:29;17.10;;;5.00;;
37425;SDS011;23285;50.180;7.036;2023-02-01T08:35:16;18.03;;;5.00;;
37425;SDS011;23285;50.180;7.036;2023-02-01T08:38:02;11.47;;;4.40;;
37425;SDS011;23285;50.180;7.036;2023-02-01T08:40:48;17.90;;;4.63;;
37425;SDS011;23285;50.180;7.036;2023-02-01T08:43:37;14.43;;;4.33;;
37425;SDS011;23285;50.180;7.036;2023-02-01T08:46:23;20.97;;;4.70;;
37425;SDS011;23285;50.180;7.036;2023-02-01T08:49:10;19.53;;;5.00;;
37425;SDS011;23285;50.180;7.036;2023-02-01T08:51:56;23.73;;;5.60;;
37425;SDS011;23285;50.180;7.036;2023-02-01T08:54:42;21.00;;;5.77;;
37425;SDS011;23285;50.180;7.036;2023-02-01T08:57:28;18.10;;;4.67;;
37425;SDS011;23285;50.180;7.036;2023-02-01T09:03:04;18.53;;;5.07;;
37425;SDS011;23285;50.180;7.036;2023-02-01T09:05:50;14.60;;;4.13;;
37425;SDS011;23285;50.180;7.036;2023-02-01T09:08:37;18.43;;;5.50;;
37425;SDS011;23285;50.180;7.036;2023-02-01T09:11:24;13.97;;;4.23;;
37425;SDS011;23285;50.180;7.036;2023-02-01T09:14:11;17.57;;;4.93;;
37425;SDS011;23285;50.180;7.036;2023-02-01T09:16:58;13.97;;;4.73;;
37425;SDS011;23285;50.180;7.036;2023-02-01T09:19:44;19.03;;;5.03;;
37425;SDS011;23285;50.180;7.036;2023-02-01T09:22:31;16.60;;;5.20;;
37425;SDS011;23285;50.180;7.036;2023-02-01T09:25:17;20.07;;;5.43;;
37425;SDS011;23285;50.180;7.036;2023-02-01T09:28:04;23.23;;;5.23;;
37425;SDS011;23285;50.180;7.036;2023-02-01T09:30:54;19.07;;;5.20;;
37425;SDS011;23285;50.180;7.036;2023-02-01T09:33:42;15.93;;;5.27;;
37425;SDS011;23285;50.180;7.036;2023-02-01T09:36:29;19.73;;;4.90;;
37425;SDS011;23285;50.180;7.036;2023-02-01T09:39:15;22.43;;;4.77;;
37425;SDS011;23285;50.180;7.036;2023-02-01T09:42:08;17.57;;;5.03;;
37425;SDS011;23285;50.180;7.036;2023-02-01T09:45:10;24.43;;;5.27;;
37425;SDS011;23285;50.180;7.036;2023-02-01T09:48:02;20.53;;;5.20;;
37425;SDS011;23285;50.180;7.036;2023-02-01T09:50:52;20.73;;;4.83;;
37425;SDS011;23285;50.180;7.036;2023-02-01T09:53:41;21.13;;;4.63;;
37425;SDS011;23285;50.180;7.036;2023-02-01T09:56:33;21.80;;;4.97;;
37425;SDS011;23285;50.180;7.036;2023-02-01T09:59:28;15.00;;;4.60;;
37425;SDS011;23285;50.180;7.036;2023-02-01T10:02:17;18.67;;;5.00;;
37425;SDS011;23285;50.180;7.036;2023-02-01T10:05:11;18.87;;;4.70;;
37425;SDS011;23285;50.180;7.036;2023-02-01T10:08:03;19.40;;;5.37;;
37425;SDS011;23285;50.180;7.036;2023-02-01T10:10:51;14.23;;;4.37;;
37425;SDS011;23285;50.180;7.036;2023-02-01T10:13:44;17.23;;;4.93;;
37425;SDS011;23285;50.180;7.036;2023-02-01T10:16:42;16.40;;;4.60;;
37425;SDS011;23285;50.180;7.036;2023-02-01T10:19:39;14.07;;;4.07;;
37425;SDS011;23285;50.180;7.036;2023-02-01T10:22:39;13.93;;;4.10;;
37425;SDS011;23285;50.180;7.036;2023-02-01T10:25:30;18.03;;;5.67;;
37425;SDS011;23285;50.180;7.036;2023-02-01T10:28:22;24.97;;;5.60;;
37425;SDS011;23285;50.180;7.036;2023-02-01T10:31:10;20.33;;;5.03;;
37425;SDS011;23285;50.180;7.036;2023-02-01T10:33:59;20.57;;;5.23;;
37425;SDS011;23285;50.180;7.036;2023-02-01T10:36:50;14.10;;;4.13;;
37425;SDS011;23285;50.180;7.036;2023-02-01T10:39:39;17.30;;;5.03;;
37425;SDS011;23285;50.180;7.036;2023-02-01T10:42:27;15.40;;;5.00;;
37425;SDS011;23285;50.180;7.036;2023-02-01T10:45:16;23.87;;;5.77;;
37425;SDS011;23285;50.180;7.036;2023-02-01T10:48:06;17.00;;;5.00;;
37425;SDS011;23285;50.180;7.036;2023-02-01T10:50:55;26.17;;;5.30;;
37425;SDS011;23285;50.180;7.036;2023-02-01T10:53:46;21.10;;;5.00;;
37425;SDS011;23285;50.180;7.036;2023-02-01T10:56:37;23.10;;;5.23;;
37425;SDS011;23285;50.180;7.036;2023-02-01T10:59:25;16.70;;;5.07;;
37425;SDS011;23285;50.180;7.036;2023-02-01T11:02:19;26.37;;;5.13;;
37425;SDS011;23285;50.180;7.036;2023-02-01T11:05:07;22.67;;;4.87;;
37425;SDS011;23285;50.180;7.036;2023-02-01T11:07:56;17.57;;;4.33;;
37425;SDS011;23285;50.180;7.036;2023-02-01T11:10:44;17.17;;;4.23;;
37425;SDS011;23285;50.180;7.036;2023-02-01T11:13:31;15.20;;;4.50;;
37425;SDS011;23285;50.180;7.036;2023-02-01T11:16:28;15.97;;;5.00;;
37425;SDS011;23285;50.180;7.036;2023-02-01T11:19:16;16.77;;;4.80;;
37425;SDS011;23285;50.180;7.036;2023-02-01T11:22:03;14.80;;;4.83;;
37425;SDS011;23285;50.180;7.036;2023-02-01T11:24:50;14.30;;;4.17;;
37425;SDS011;23285;50.180;7.036;2023-02-01T11:27:37;18.37;;;4.37;;
37425;SDS011;23285;50.180;7.036;2023-02-01T11:30:27;16.27;;;4.23;;
37425;SDS011;23285;50.180;7.036;2023-02-01T11:33:20;17.30;;;4.87;;
37425;SDS011;23285;50.180;7.036;2023-02-01T11:36:10;13.30;;;3.97;;
37425;SDS011;23285;50.180;7.036;2023-02-01T11:39:10;18.53;;;4.20;;
37425;SDS011;23285;50.180;7.036;2023-02-01T11:42:05;18.47;;;4.17;;
37425;SDS011;23285;50.180;7.036;2023-02-01T11:45:15;12.70;;;3.63;;
37425;SDS011;23285;50.180;7.036;2023-02-01T11:48:07;19.70;;;4.23;;
37425;SDS011;23285;50.180;7.036;2023-02-01T11:51:03;10.83;;;3.23;;
37425;SDS011;23285;50.180;7.036;2023-02-01T11:54:01;15.53;;;4.27;;
37425;SDS011;23285;50.180;7.036;2023-02-01T11:56:51;14.10;;;4.37;;
37425;SDS011;23285;50.180;7.036;2023-02-01T11:59:52;16.80;;;4.13;;
37425;SDS011;23285;50.180;7.036;2023-02-01T12:03:05;12.47;;;3.83;;
37425;SDS011;23285;50.180;7.036;2023-02-01T12:06:33;16.43;;;3.70;;
37425;SDS011;23285;50.180;7.036;2023-02-01T12:09:35;15.07;;;4.47;;
37425;SDS011;23285;50.180;7.036;2023-02-01T12:12:34;18.37;;;3.77;;
37425;SDS011;23285;50.180;7.036;2023-02-01T12:15:25;14.70;;;4.43;;
37425;SDS011;23285;50.180;7.036;2023-02-01T12:18:31;15.40;;;3.57;;
37425;SDS011;23285;50.180;7.036;2023-02-01T12:21:52;21.80;;;4.17;;
37425;SDS011;23285;50.180;7.036;2023-02-01T12:24:53;14.90;;;3.70;;
37425;SDS011;23285;50.180;7.036;2023-02-01T12:31:32;22.00;;;4.53;;
37425;SDS011;23285;50.180;7.036;2023-02-01T12:38:03;15.20;;;3.53;;
37425;SDS011;23285;50.180;7.036;2023-02-01T12:41:00;14.97;;;3.97;;
37425;SDS011;23285;50.180;7.036;2023-02-01T12:43:48;17.20;;;3.70;;
37425;SDS011;23285;50.180;7.036;2023-02-01T12:46:39;14.33;;;3.40;;
37425;SDS011;23285;50.180;7.036;2023-02-01T12:49:29;14.17;;;3.50;;
37425;SDS011;23285;50.180;7.036;2023-02-01T12:52:26;14.43;;;2.93;;
37425;SDS011;23285;50.180;7.036;2023-02-01T12:55:22;14.67;;;3.73;;
37425;SDS011;23285;50.180;7.036;2023-02-01T12:58:09;18.17;;;3.73;;
37425;SDS011;23285;50.180;7.036;2023-02-01T13:01:00;12.20;;;3.03;;
37425;SDS011;23285;50.180;7.036;2023-02-01T13:03:50;15.43;;;3.70;;
37425;SDS011;23285;50.180;7.036;2023-02-01T13:06:41;18.80;;;3.87;;
37425;SDS011;23285;50.180;7.036;2023-02-01T13:09:34;18.43;;;3.63;;
37425;SDS011;23285;50.180;7.036;2023-02-01T13:12:28;14.30;;;3.70;;
37425;SDS011;23285;50.180;7.036;2023-02-01T13:15:20;15.70;;;3.60;;
37425;SDS011;23285;50.180;7.036;2023-02-01T13:18:11;16.23;;;3.63;;
37425;SDS011;23285;50.180;7.036;2023-02-01T13:21:02;13.30;;;4.13;;
37425;SDS011;23285;50.180;7.036;2023-02-01T13:23:51;13.70;;;3.50;;
37425;SDS011;23285;50.180;7.036;2023-02-01T13:26:38;16.00;;;4.00;;
37425;SDS011;23285;50.180;7.036;2023-02-01T13:29:26;14.30;;;3.33;;
37425;SDS011;23285;50.180;7.036;2023-02-01T13:32:18;10.43;;;2.83;;
37425;SDS011;23285;50.180;7.036;2023-02-01T13:35:50;10.23;;;3.03;;
37425;SDS011;23285;50.180;7.036;2023-02-01T13:42:22;13.10;;;3.43;;
37425;SDS011;23285;50.180;7.036;2023-02-01T13:45:15;11.17;;;3.13;;
37425;SDS011;23285;50.180;7.036;2023-02-01T13:48:05;17.03;;;3.73;;
37425;SDS011;23285;50.180;7.036;2023-02-01T13:50:54;12.13;;;3.33;;
37425;SDS011;23285;50.180;7.036;2023-02-01T13:53:44;13.97;;;3.70;;
37425;SDS011;23285;50.180;7.036;2023-02-01T13:56:39;11.60;;;3.03;;
37425;SDS011;23285;50.180;7.036;2023-02-01T14:03:08;14.47;;;3.90;;
37425;SDS011;23285;50.180;7.036;2023-02-01T14:06:01;12.90;;;2.63;;
37425;SDS011;23285;50.180;7.036;2023-02-01T14:15:24;13.33;;;2.90;;
37425;SDS011;23285;50.180;7.036;2023-02-01T14:21:33;18.10;;;4.10;;
37425;SDS011;23285;50.180;7.036;2023-02-01T14:24:31;13.07;;;3.63;;
37425;SDS011;23285;50.180;7.036;2023-02-01T14:27:20;15.13;;;3.60;;
37425;SDS011;23285;50.180;7.036;2023-02-01T14:30:14;12.00;;;3.40;;
37425;SDS011;23285;50.180;7.036;2023-02-01T14:33:10;14.67;;;3.30;;
37425;SDS011;23285;50.180;7.036;2023-02-01T14:36:05;12.00;;;3.60;;
37425;SDS011;23285;50.180;7.036;2023-02-01T14:38:55;12.23;;;3.50;;
37425;SDS011;23285;50.180;7.036;2023-02-01T14:41:42;14.70;;;3.13;;
37425;SDS011;23285;50.180;7.036;2023-02-01T14:44:33;12.53;;;2.83;;
37425;SDS011;23285;50.180;7.036;2023-02-01T14:47:32;14.77;;;3.00;;
37425;SDS011;23285;50.180;7.036;2023-02-01T14:50:25;13.57;;;3.07;;
37425;SDS011;23285;50.180;7.036;2023-02-01T14:53:19;12.60;;;2.77;;
37425;SDS011;23285;50.180;7.036;2023-02-01T14:56:11;16.27;;;3.60;;
37425;SDS011;23285;50.180;7.036;2023-02-01T14:59:05;9.70;;;3.03;;
37425;SDS011;23285;50.180;7.036;2023-02-01T15:01:55;15.73;;;2.90;;
37425;SDS011;23285;50.180;7.036;2023-02-01T15:04:44;13.77;;;3.03;;
37425;SDS011;23285;50.180;7.036;2023-02-01T15:07:30;9.77;;;2.37;;
37425;SDS011;23285;50.180;7.036;2023-02-01T15:10:17;12.50;;;2.80;;
37425;SDS011;23285;50.180;7.036;2023-02-01T15:13:05;12.07;;;2.80;;
37425;SDS011;23285;50.180;7.036;2023-02-01T15:16:02;11.80;;;3.27;;
37425;SDS011;23285;50.180;7.036;2023-02-01T15:18:48;11.27;;;2.87;;
37425;SDS011;23285;50.180;7.036;2023-02-01T15:21:42;9.70;;;3.20;;
37425;SDS011;23285;50.180;7.036;2023-02-01T15:24:30;11.50;;;3.57;;
37425;SDS011;23285;50.180;7.036;2023-02-01T15:27:17;10.90;;;3.20;;
37425;SDS011;23285;50.180;7.036;2023-02-01T15:30:08;15.30;;;4.17;;
37425;SDS011;23285;50.180;7.036;2023-02-01T15:33:04;9.33;;;3.10;;
37425;SDS011;23285;50.180;7.036;2023-02-01T15:35:52;11.23;;;2.93;;
37425;SDS011;23285;50.180;7.036;2023-02-01T15:38:41;13.00;;;3.47;;
37425;SDS011;23285;50.180;7.036;2023-02-01T15:41:28;15.77;;;4.27;;
37425;SDS011;23285;50.180;7.036;2023-02-01T15:44:19;19.47;;;3.73;;
37425;SDS011;23285;50.180;7.036;2023-02-01T15:47:19;16.57;;;3.30;;
37425;SDS011;23285;50.180;7.036;2023-02-01T15:50:12;11.53;;;3.50;;
37425;SDS011;23285;50.180;7.036;2023-02-01T15:53:00;11.40;;;3.20;;
37425;SDS011;23285;50.180;7.036;2023-02-01T15:55:47;11.50;;;3.47;;
37425;SDS011;23285;50.180;7.036;2023-02-01T15:58:37;13.17;;;3.17;;
37425;SDS011;23285;50.180;7.036;2023-02-01T16:01:30;11.77;;;3.17;;
37425;SDS011;23285;50.180;7.036;2023-02-01T16:04:23;12.27;;;3.23;;
37425;SDS011;23285;50.180;7.036;2023-02-01T16:07:21;15.67;;;4.07;;
37425;SDS011;23285;50.180;7.036;2023-02-01T16:10:20;13.50;;;2.90;;
37425;SDS011;23285;50.180;7.036;2023-02-01T16:13:11;11.93;;;3.13;;
37425;SDS011;23285;50.180;7.036;2023-02-01T16:15:58;16.97;;;3.17;;
37425;SDS011;23285;50.180;7.036;2023-02-01T16:18:44;13.63;;;3.63;;
37425;SDS011;23285;50.180;7.036;2023-02-01T16:21:32;11.17;;;3.03;;
37425;SDS011;23285;50.180;7.036;2023-02-01T16:24:18;13.77;;;3.00;;
37425;SDS011;23285;50.180;7.036;2023-02-01T16:27:06;10.43;;;3.20;;
37425;SDS011;23285;50.180;7.036;2023-02-01T16:29:52;8.37;;;2.70;;
37425;SDS011;23285;50.180;7.036;2023-02-01T16:32:41;12.53;;;2.93;;
37425;SDS011;23285;50.180;7.036;2023-02-01T16:35:28;10.90;;;2.63;;
37425;SDS011;23285;50.180;7.036;2023-02-01T16:38:21;16.13;;;3.47;;
37425;SDS011;23285;50.180;7.036;2023-02-01T16:41:09;15.23;;;3.20;;
37425;SDS011;23285;50.180;7.036;2023-02-01T16:43:56;12.03;;;2.57;;
37425;SDS011;23285;50.180;7.036;2023-02-01T16:46:44;13.13;;;2.93;;
37425;SDS011;23285;50.180;7.036;2023-02-01T16:49:31;17.10;;;4.03;;
37425;SDS011;23285;50.180;7.036;2023-02-01T16:52:19;16.93;;;3.20;;
37425;SDS011;23285;50.180;7.036;2023-02-01T16:55:10;12.73;;;2.80;;
37425;SDS011;23285;50.180;7.036;2023-02-01T16:57:59;11.17;;;3.67;;
37425;SDS011;23285;50.180;7.036;2023-02-01T17:00:45;13.20;;;3.47;;
37425;SDS011;23285;50.180;7.036;2023-02-01T17:03:33;13.23;;;3.07;;
37425;SDS011;23285;50.180;7.036;2023-02-01T17:06:21;12.17;;;3.13;;
37425;SDS011;23285;50.180;7.036;2023-02-01T17:09:08;15.60;;;3.50;;
37425;SDS011;23285;50.180;7.036;2023-02-01T17:11:56;17.23;;;3.50;;
37425;SDS011;23285;50.180;7.036;2023-02-01T17:14:43;17.70;;;4.07;;
37425;SDS011;23285;50.180;7.036;2023-02-01T17:17:30;12.00;;;3.57;;
37425;SDS011;23285;50.180;7.036;2023-02-01T17:20:21;11.37;;;3.03;;